METAR Data
IDs: Format: Raw Decoded Include TAF

Data at: 0823 UTC 01 Aug 2021

ETSN 010720Z 29003KT 9999 FEW007 SCT070 BKN080 15/13 Q1010 BLU